sensor_id;sensor_type;location;lat;lon;timestamp;P1;durP1;ratioP1;P2;durP2;ratioP2
75050;SDS011;63628;47.656;11.310;2022-10-16T00:00:52;1.17;;;0.85;;
75050;SDS011;63628;47.656;11.310;2022-10-16T00:03:19;1.75;;;1.10;;
75050;SDS011;63628;47.656;11.310;2022-10-16T00:05:45;1.95;;;1.15;;
75050;SDS011;63628;47.656;11.310;2022-10-16T00:08:12;1.10;;;1.00;;
75050;SDS011;63628;47.656;11.310;2022-10-16T00:10:39;1.60;;;0.80;;
75050;SDS011;63628;47.656;11.310;2022-10-16T00:13:06;1.42;;;1.20;;
75050;SDS011;63628;47.656;11.310;2022-10-16T00:15:34;1.33;;;0.88;;
75050;SDS011;63628;47.656;11.310;2022-10-16T00:18:05;0.77;;;0.75;;
75050;SDS011;63628;47.656;11.310;2022-10-16T00:20:33;1.50;;;1.05;;
75050;SDS011;63628;47.656;11.310;2022-10-16T00:23:00;1.52;;;1.17;;
75050;SDS011;63628;47.656;11.310;2022-10-16T00:25:27;5.15;;;1.42;;
75050;SDS011;63628;47.656;11.310;2022-10-16T00:27:53;1.20;;;1.02;;
75050;SDS011;63628;47.656;11.310;2022-10-16T00:30:20;1.27;;;1.05;;
75050;SDS011;63628;47.656;11.310;2022-10-16T00:32:46;1.73;;;0.93;;
75050;SDS011;63628;47.656;11.310;2022-10-16T00:35:13;1.15;;;1.05;;
75050;SDS011;63628;47.656;11.310;2022-10-16T00:37:39;1.92;;;1.38;;
75050;SDS011;63628;47.656;11.310;2022-10-16T00:40:06;7.07;;;4.70;;
75050;SDS011;63628;47.656;11.310;2022-10-16T00:42:33;1.38;;;1.00;;
75050;SDS011;63628;47.656;11.310;2022-10-16T00:44:59;1.80;;;1.35;;
75050;SDS011;63628;47.656;11.310;2022-10-16T00:47:33;4.05;;;2.30;;
75050;SDS011;63628;47.656;11.310;2022-10-16T00:52:36;4.25;;;2.67;;
75050;SDS011;63628;47.656;11.310;2022-10-16T00:55:08;1.40;;;1.20;;
75050;SDS011;63628;47.656;11.310;2022-10-16T00:57:36;2.28;;;1.10;;
75050;SDS011;63628;47.656;11.310;2022-10-16T01:00:04;1.42;;;1.20;;
75050;SDS011;63628;47.656;11.310;2022-10-16T01:02:32;6.75;;;3.28;;
75050;SDS011;63628;47.656;11.310;2022-10-16T01:04:59;2.80;;;2.20;;
75050;SDS011;63628;47.656;11.310;2022-10-16T01:15:42;1.85;;;1.27;;
75050;SDS011;63628;47.656;11.310;2022-10-16T01:21:01;5.57;;;2.70;;
75050;SDS011;63628;47.656;11.310;2022-10-16T01:23:38;4.95;;;1.50;;
75050;SDS011;63628;47.656;11.310;2022-10-16T01:28:51;2.55;;;1.20;;
75050;SDS011;63628;47.656;11.310;2022-10-16T01:31:23;1.85;;;1.30;;
75050;SDS011;63628;47.656;11.310;2022-10-16T01:33:58;1.92;;;1.58;;
75050;SDS011;63628;47.656;11.310;2022-10-16T01:36:39;2.58;;;1.50;;
75050;SDS011;63628;47.656;11.310;2022-10-16T01:39:10;1.30;;;1.20;;
75050;SDS011;63628;47.656;11.310;2022-10-16T01:41:39;1.20;;;1.10;;
75050;SDS011;63628;47.656;11.310;2022-10-16T01:44:19;2.33;;;1.45;;
75050;SDS011;63628;47.656;11.310;2022-10-16T01:46:51;1.67;;;1.27;;
75050;SDS011;63628;47.656;11.310;2022-10-16T01:49:20;1.35;;;1.15;;
75050;SDS011;63628;47.656;11.310;2022-10-16T01:51:49;1.42;;;1.33;;
75050;SDS011;63628;47.656;11.310;2022-10-16T01:54:20;1.50;;;1.20;;
75050;SDS011;63628;47.656;11.310;2022-10-16T01:56:52;2.00;;;1.38;;
75050;SDS011;63628;47.656;11.310;2022-10-16T01:59:20;1.85;;;1.42;;
75050;SDS011;63628;47.656;11.310;2022-10-16T02:01:50;2.72;;;1.67;;
75050;SDS011;63628;47.656;11.310;2022-10-16T02:04:29;1.42;;;1.33;;
75050;SDS011;63628;47.656;11.310;2022-10-16T02:06:59;1.48;;;1.30;;
75050;SDS011;63628;47.656;11.310;2022-10-16T02:09:26;2.35;;;1.30;;
75050;SDS011;63628;47.656;11.310;2022-10-16T02:11:53;1.58;;;1.27;;
75050;SDS011;63628;47.656;11.310;2022-10-16T02:14:23;1.85;;;1.40;;
75050;SDS011;63628;47.656;11.310;2022-10-16T02:16:50;3.80;;;1.60;;
75050;SDS011;63628;47.656;11.310;2022-10-16T02:19:17;1.65;;;1.27;;
75050;SDS011;63628;47.656;11.310;2022-10-16T02:27:12;1.55;;;1.10;;
75050;SDS011;63628;47.656;11.310;2022-10-16T02:29:47;1.35;;;1.17;;
75050;SDS011;63628;47.656;11.310;2022-10-16T02:32:20;1.20;;;1.10;;
75050;SDS011;63628;47.656;11.310;2022-10-16T02:34:49;3.17;;;1.40;;
75050;SDS011;63628;47.656;11.310;2022-10-16T02:37:18;2.22;;;1.20;;
75050;SDS011;63628;47.656;11.310;2022-10-16T02:39:45;1.50;;;1.27;;
75050;SDS011;63628;47.656;11.310;2022-10-16T02:42:12;1.67;;;1.27;;
75050;SDS011;63628;47.656;11.310;2022-10-16T02:44:39;1.75;;;1.23;;
75050;SDS011;63628;47.656;11.310;2022-10-16T02:47:05;1.52;;;0.95;;
75050;SDS011;63628;47.656;11.310;2022-10-16T02:49:32;1.23;;;1.10;;
75050;SDS011;63628;47.656;11.310;2022-10-16T02:51:59;1.30;;;1.20;;
75050;SDS011;63628;47.656;11.310;2022-10-16T02:54:25;3.10;;;1.08;;
75050;SDS011;63628;47.656;11.310;2022-10-16T02:56:52;1.63;;;1.17;;
75050;SDS011;63628;47.656;11.310;2022-10-16T02:59:18;1.75;;;0.60;;
75050;SDS011;63628;47.656;11.310;2022-10-16T03:01:45;2.72;;;0.63;;
75050;SDS011;63628;47.656;11.310;2022-10-16T03:04:11;4.72;;;1.10;;
75050;SDS011;63628;47.656;11.310;2022-10-16T03:06:37;1.98;;;1.20;;
75050;SDS011;63628;47.656;11.310;2022-10-16T03:09:04;1.10;;;1.00;;
75050;SDS011;63628;47.656;11.310;2022-10-16T03:11:30;1.30;;;1.10;;
75050;SDS011;63628;47.656;11.310;2022-10-16T03:13:57;1.10;;;1.00;;
75050;SDS011;63628;47.656;11.310;2022-10-16T03:16:23;3.60;;;1.38;;
75050;SDS011;63628;47.656;11.310;2022-10-16T03:18:50;1.13;;;1.00;;
75050;SDS011;63628;47.656;11.310;2022-10-16T03:21:16;3.50;;;1.80;;
75050;SDS011;63628;47.656;11.310;2022-10-16T03:23:42;3.05;;;1.50;;
75050;SDS011;63628;47.656;11.310;2022-10-16T03:26:09;1.60;;;1.30;;
75050;SDS011;63628;47.656;11.310;2022-10-16T03:28:35;1.23;;;1.00;;
75050;SDS011;63628;47.656;11.310;2022-10-16T03:31:02;1.10;;;0.95;;
75050;SDS011;63628;47.656;11.310;2022-10-16T03:33:28;3.55;;;1.60;;
75050;SDS011;63628;47.656;11.310;2022-10-16T03:35:55;4.20;;;2.63;;
75050;SDS011;63628;47.656;11.310;2022-10-16T03:38:22;1.52;;;1.30;;
75050;SDS011;63628;47.656;11.310;2022-10-16T03:40:48;2.00;;;1.52;;
75050;SDS011;63628;47.656;11.310;2022-10-16T03:43:15;1.27;;;1.17;;
75050;SDS011;63628;47.656;11.310;2022-10-16T03:45:41;1.55;;;1.17;;
75050;SDS011;63628;47.656;11.310;2022-10-16T03:48:08;2.15;;;1.63;;
75050;SDS011;63628;47.656;11.310;2022-10-16T03:50:34;1.55;;;1.17;;
75050;SDS011;63628;47.656;11.310;2022-10-16T03:53:01;1.40;;;1.00;;
75050;SDS011;63628;47.656;11.310;2022-10-16T03:55:27;1.70;;;1.10;;
75050;SDS011;63628;47.656;11.310;2022-10-16T03:57:53;8.88;;;1.77;;
75050;SDS011;63628;47.656;11.310;2022-10-16T04:00:20;1.85;;;1.30;;
75050;SDS011;63628;47.656;11.310;2022-10-16T04:02:46;3.00;;;1.10;;
75050;SDS011;63628;47.656;11.310;2022-10-16T04:05:13;2.78;;;1.10;;
75050;SDS011;63628;47.656;11.310;2022-10-16T04:07:39;1.65;;;1.20;;
75050;SDS011;63628;47.656;11.310;2022-10-16T04:10:06;1.05;;;0.60;;
75050;SDS011;63628;47.656;11.310;2022-10-16T04:12:33;1.63;;;1.00;;
75050;SDS011;63628;47.656;11.310;2022-10-16T04:14:59;2.13;;;1.33;;
75050;SDS011;63628;47.656;11.310;2022-10-16T04:17:26;1.60;;;1.10;;
75050;SDS011;63628;47.656;11.310;2022-10-16T04:19:53;1.35;;;1.08;;
75050;SDS011;63628;47.656;11.310;2022-10-16T04:22:19;1.52;;;1.00;;
75050;SDS011;63628;47.656;11.310;2022-10-16T04:24:46;1.75;;;1.25;;
75050;SDS011;63628;47.656;11.310;2022-10-16T04:27:12;1.45;;;1.30;;
75050;SDS011;63628;47.656;11.310;2022-10-16T04:29:39;1.20;;;1.00;;
75050;SDS011;63628;47.656;11.310;2022-10-16T04:32:05;1.33;;;0.93;;
75050;SDS011;63628;47.656;11.310;2022-10-16T04:34:34;3.83;;;0.80;;
75050;SDS011;63628;47.656;11.310;2022-10-16T04:37:01;1.50;;;1.00;;
75050;SDS011;63628;47.656;11.310;2022-10-16T04:39:27;4.25;;;1.40;;
75050;SDS011;63628;47.656;11.310;2022-10-16T04:41:54;4.72;;;1.10;;
75050;SDS011;63628;47.656;11.310;2022-10-16T04:44:20;1.70;;;1.10;;
75050;SDS011;63628;47.656;11.310;2022-10-16T04:46:47;1.30;;;1.00;;
75050;SDS011;63628;47.656;11.310;2022-10-16T04:49:16;1.60;;;1.20;;
75050;SDS011;63628;47.656;11.310;2022-10-16T04:51:42;8.27;;;0.95;;
75050;SDS011;63628;47.656;11.310;2022-10-16T04:54:09;1.17;;;1.00;;
75050;SDS011;63628;47.656;11.310;2022-10-16T04:56:36;1.20;;;1.10;;
75050;SDS011;63628;47.656;11.310;2022-10-16T04:59:09;1.73;;;1.08;;
75050;SDS011;63628;47.656;11.310;2022-10-16T05:01:35;1.63;;;1.05;;
75050;SDS011;63628;47.656;11.310;2022-10-16T05:04:05;1.20;;;1.10;;
75050;SDS011;63628;47.656;11.310;2022-10-16T05:06:31;1.02;;;0.82;;
75050;SDS011;63628;47.656;11.310;2022-10-16T05:08:58;4.20;;;0.75;;
75050;SDS011;63628;47.656;11.310;2022-10-16T05:11:25;1.38;;;1.15;;
75050;SDS011;63628;47.656;11.310;2022-10-16T05:13:51;0.90;;;0.80;;
75050;SDS011;63628;47.656;11.310;2022-10-16T05:18:47;1.85;;;0.93;;
75050;SDS011;63628;47.656;11.310;2022-10-16T05:21:18;2.45;;;1.20;;
75050;SDS011;63628;47.656;11.310;2022-10-16T05:23:45;0.95;;;0.80;;
75050;SDS011;63628;47.656;11.310;2022-10-16T05:26:11;10.43;;;0.88;;
75050;SDS011;63628;47.656;11.310;2022-10-16T05:28:38;1.23;;;1.00;;
75050;SDS011;63628;47.656;11.310;2022-10-16T05:31:08;1.75;;;1.38;;
75050;SDS011;63628;47.656;11.310;2022-10-16T05:33:35;2.42;;;1.05;;
75050;SDS011;63628;47.656;11.310;2022-10-16T05:36:03;9.63;;;1.60;;
75050;SDS011;63628;47.656;11.310;2022-10-16T05:38:31;3.67;;;1.10;;
75050;SDS011;63628;47.656;11.310;2022-10-16T05:40:57;1.00;;;0.85;;
75050;SDS011;63628;47.656;11.310;2022-10-16T05:43:24;3.38;;;1.27;;
75050;SDS011;63628;47.656;11.310;2022-10-16T05:45:57;3.20;;;1.30;;
75050;SDS011;63628;47.656;11.310;2022-10-16T05:48:25;1.40;;;0.95;;
75050;SDS011;63628;47.656;11.310;2022-10-16T05:51:05;5.90;;;1.80;;
75050;SDS011;63628;47.656;11.310;2022-10-16T05:53:34;1.10;;;1.00;;
75050;SDS011;63628;47.656;11.310;2022-10-16T05:56:02;1.47;;;1.03;;
75050;SDS011;63628;47.656;11.310;2022-10-16T05:58:30;1.17;;;0.90;;
75050;SDS011;63628;47.656;11.310;2022-10-16T06:00:59;6.30;;;2.17;;
75050;SDS011;63628;47.656;11.310;2022-10-16T06:03:27;2.92;;;1.90;;
75050;SDS011;63628;47.656;11.310;2022-10-16T06:05:54;1.27;;;1.05;;
75050;SDS011;63628;47.656;11.310;2022-10-16T06:08:21;1.92;;;1.27;;
75050;SDS011;63628;47.656;11.310;2022-10-16T06:10:49;1.42;;;1.23;;
75050;SDS011;63628;47.656;11.310;2022-10-16T06:13:26;1.20;;;0.90;;
75050;SDS011;63628;47.656;11.310;2022-10-16T06:15:52;1.65;;;1.20;;
75050;SDS011;63628;47.656;11.310;2022-10-16T06:18:19;5.40;;;4.25;;
75050;SDS011;63628;47.656;11.310;2022-10-16T06:20:45;1.75;;;1.65;;
75050;SDS011;63628;47.656;11.310;2022-10-16T06:23:12;1.35;;;1.25;;
75050;SDS011;63628;47.656;11.310;2022-10-16T06:25:38;5.97;;;4.07;;
75050;SDS011;63628;47.656;11.310;2022-10-16T06:28:05;5.57;;;4.10;;
75050;SDS011;63628;47.656;11.310;2022-10-16T06:30:31;1.92;;;1.40;;
75050;SDS011;63628;47.656;11.310;2022-10-16T06:32:58;2.35;;;1.63;;
75050;SDS011;63628;47.656;11.310;2022-10-16T06:35:24;1.40;;;1.20;;
75050;SDS011;63628;47.656;11.310;2022-10-16T06:37:52;1.48;;;1.27;;
75050;SDS011;63628;47.656;11.310;2022-10-16T06:40:19;2.00;;;1.10;;
75050;SDS011;63628;47.656;11.310;2022-10-16T06:42:45;1.73;;;1.40;;
75050;SDS011;63628;47.656;11.310;2022-10-16T06:45:12;5.57;;;2.58;;
75050;SDS011;63628;47.656;11.310;2022-10-16T06:47:38;6.05;;;3.15;;
75050;SDS011;63628;47.656;11.310;2022-10-16T06:50:05;7.30;;;4.20;;
75050;SDS011;63628;47.656;11.310;2022-10-16T06:52:35;8.40;;;5.70;;
75050;SDS011;63628;47.656;11.310;2022-10-16T06:55:01;9.63;;;5.13;;
75050;SDS011;63628;47.656;11.310;2022-10-16T06:57:28;7.45;;;4.55;;
75050;SDS011;63628;47.656;11.310;2022-10-16T06:59:55;4.45;;;3.20;;
75050;SDS011;63628;47.656;11.310;2022-10-16T07:02:21;3.20;;;2.53;;
75050;SDS011;63628;47.656;11.310;2022-10-16T07:04:48;2.85;;;2.17;;
75050;SDS011;63628;47.656;11.310;2022-10-16T07:07:15;7.22;;;5.15;;
75050;SDS011;63628;47.656;11.310;2022-10-16T07:09:41;6.13;;;4.25;;
75050;SDS011;63628;47.656;11.310;2022-10-16T07:12:08;10.98;;;3.20;;
75050;SDS011;63628;47.656;11.310;2022-10-16T07:14:34;4.72;;;3.20;;
75050;SDS011;63628;47.656;11.310;2022-10-16T07:17:01;8.18;;;5.13;;
75050;SDS011;63628;47.656;11.310;2022-10-16T07:19:28;9.82;;;6.25;;
75050;SDS011;63628;47.656;11.310;2022-10-16T07:21:59;6.07;;;3.80;;
75050;SDS011;63628;47.656;11.310;2022-10-16T07:24:25;2.72;;;2.15;;
75050;SDS011;63628;47.656;11.310;2022-10-16T07:26:52;3.25;;;2.22;;
75050;SDS011;63628;47.656;11.310;2022-10-16T07:29:20;3.13;;;2.10;;
75050;SDS011;63628;47.656;11.310;2022-10-16T07:31:47;1.77;;;1.42;;
75050;SDS011;63628;47.656;11.310;2022-10-16T07:34:15;2.45;;;2.17;;
75050;SDS011;63628;47.656;11.310;2022-10-16T07:36:43;6.05;;;2.28;;
75050;SDS011;63628;47.656;11.310;2022-10-16T07:39:10;3.80;;;2.70;;
75050;SDS011;63628;47.656;11.310;2022-10-16T07:41:36;3.40;;;2.95;;
75050;SDS011;63628;47.656;11.310;2022-10-16T07:44:03;5.50;;;3.13;;
75050;SDS011;63628;47.656;11.310;2022-10-16T07:46:30;1.92;;;1.65;;
75050;SDS011;63628;47.656;11.310;2022-10-16T07:48:57;4.60;;;2.88;;
75050;SDS011;63628;47.656;11.310;2022-10-16T07:51:24;5.10;;;2.70;;
75050;SDS011;63628;47.656;11.310;2022-10-16T07:53:51;6.68;;;2.65;;
75050;SDS011;63628;47.656;11.310;2022-10-16T07:56:18;4.47;;;3.67;;
75050;SDS011;63628;47.656;11.310;2022-10-16T07:58:45;6.75;;;3.30;;
75050;SDS011;63628;47.656;11.310;2022-10-16T08:01:13;2.42;;;1.95;;
75050;SDS011;63628;47.656;11.310;2022-10-16T08:03:41;1.88;;;1.50;;
75050;SDS011;63628;47.656;11.310;2022-10-16T08:06:09;2.25;;;1.90;;
75050;SDS011;63628;47.656;11.310;2022-10-16T08:08:35;2.97;;;2.30;;
75050;SDS011;63628;47.656;11.310;2022-10-16T08:11:02;7.80;;;2.72;;
75050;SDS011;63628;47.656;11.310;2022-10-16T08:13:30;3.58;;;2.35;;
75050;SDS011;63628;47.656;11.310;2022-10-16T08:15:57;3.08;;;1.95;;
75050;SDS011;63628;47.656;11.310;2022-10-16T08:18:23;2.72;;;2.13;;
75050;SDS011;63628;47.656;11.310;2022-10-16T08:20:56;2.78;;;1.50;;
75050;SDS011;63628;47.656;11.310;2022-10-16T08:23:24;2.08;;;1.88;;
75050;SDS011;63628;47.656;11.310;2022-10-16T08:25:52;3.65;;;2.00;;
75050;SDS011;63628;47.656;11.310;2022-10-16T08:28:20;3.97;;;2.15;;
75050;SDS011;63628;47.656;11.310;2022-10-16T08:30:48;3.30;;;1.60;;
75050;SDS011;63628;47.656;11.310;2022-10-16T08:33:14;2.17;;;1.98;;
75050;SDS011;63628;47.656;11.310;2022-10-16T08:35:41;2.42;;;2.10;;
75050;SDS011;63628;47.656;11.310;2022-10-16T08:38:07;4.22;;;2.00;;
75050;SDS011;63628;47.656;11.310;2022-10-16T08:40:35;2.63;;;1.65;;
75050;SDS011;63628;47.656;11.310;2022-10-16T08:43:09;1.85;;;1.65;;
75050;SDS011;63628;47.656;11.310;2022-10-16T08:48:50;5.47;;;1.88;;
75050;SDS011;63628;47.656;11.310;2022-10-16T08:53:55;2.03;;;1.83;;
75050;SDS011;63628;47.656;11.310;2022-10-16T08:56:24;3.03;;;1.70;;
75050;SDS011;63628;47.656;11.310;2022-10-16T08:58:52;1.60;;;1.35;;
75050;SDS011;63628;47.656;11.310;2022-10-16T09:01:37;2.55;;;1.98;;
75050;SDS011;63628;47.656;11.310;2022-10-16T09:04:26;2.03;;;1.83;;
75050;SDS011;63628;47.656;11.310;2022-10-16T09:15:59;2.10;;;1.90;;
75050;SDS011;63628;47.656;11.310;2022-10-16T09:21:45;3.60;;;1.98;;
75050;SDS011;63628;47.656;11.310;2022-10-16T09:24:14;3.63;;;2.03;;
75050;SDS011;63628;47.656;11.310;2022-10-16T09:26:43;5.15;;;1.77;;
75050;SDS011;63628;47.656;11.310;2022-10-16T09:29:14;3.45;;;2.10;;
75050;SDS011;63628;47.656;11.310;2022-10-16T09:31:41;3.40;;;1.70;;
75050;SDS011;63628;47.656;11.310;2022-10-16T09:34:13;3.22;;;2.05;;
75050;SDS011;63628;47.656;11.310;2022-10-16T09:36:49;3.15;;;1.92;;
75050;SDS011;63628;47.656;11.310;2022-10-16T09:39:17;3.80;;;1.98;;
75050;SDS011;63628;47.656;11.310;2022-10-16T09:41:44;1.63;;;1.52;;
75050;SDS011;63628;47.656;11.310;2022-10-16T09:44:22;4.25;;;1.73;;
75050;SDS011;63628;47.656;11.310;2022-10-16T09:47:06;4.25;;;1.58;;
75050;SDS011;63628;47.656;11.310;2022-10-16T09:49:50;2.60;;;1.98;;
75050;SDS011;63628;47.656;11.310;2022-10-16T09:52:21;3.47;;;1.90;;
75050;SDS011;63628;47.656;11.310;2022-10-16T09:54:49;3.35;;;1.95;;
75050;SDS011;63628;47.656;11.310;2022-10-16T09:57:23;3.75;;;1.88;;
75050;SDS011;63628;47.656;11.310;2022-10-16T09:59:52;1.98;;;1.70;;
75050;SDS011;63628;47.656;11.310;2022-10-16T10:02:35;2.13;;;1.80;;
75050;SDS011;63628;47.656;11.310;2022-10-16T10:05:04;3.78;;;1.90;;
75050;SDS011;63628;47.656;11.310;2022-10-16T10:07:33;2.50;;;1.98;;
75050;SDS011;63628;47.656;11.310;2022-10-16T10:10:06;3.10;;;1.77;;
75050;SDS011;63628;47.656;11.310;2022-10-16T10:12:45;3.63;;;1.83;;
75050;SDS011;63628;47.656;11.310;2022-10-16T10:15:12;1.85;;;1.58;;
75050;SDS011;63628;47.656;11.310;2022-10-16T10:17:50;2.13;;;1.58;;
75050;SDS011;63628;47.656;11.310;2022-10-16T10:20:22;2.35;;;1.40;;
75050;SDS011;63628;47.656;11.310;2022-10-16T10:23:00;2.80;;;1.60;;
75050;SDS011;63628;47.656;11.310;2022-10-16T10:26:18;2.30;;;1.65;;
75050;SDS011;63628;47.656;11.310;2022-10-16T10:34:25;1.80;;;1.48;;
75050;SDS011;63628;47.656;11.310;2022-10-16T10:36:56;2.78;;;1.63;;
75050;SDS011;63628;47.656;11.310;2022-10-16T10:39:39;1.73;;;1.50;;
75050;SDS011;63628;47.656;11.310;2022-10-16T10:50:23;2.47;;;1.70;;
75050;SDS011;63628;47.656;11.310;2022-10-16T10:55:54;3.22;;;1.95;;
75050;SDS011;63628;47.656;11.310;2022-10-16T11:01:35;1.60;;;1.23;;
75050;SDS011;63628;47.656;11.310;2022-10-16T11:06:53;1.52;;;1.42;;
75050;SDS011;63628;47.656;11.310;2022-10-16T11:09:27;1.60;;;1.50;;
75050;SDS011;63628;47.656;11.310;2022-10-16T11:12:11;1.88;;;1.40;;
75050;SDS011;63628;47.656;11.310;2022-10-16T11:17:39;1.60;;;1.50;;
75050;SDS011;63628;47.656;11.310;2022-10-16T11:20:24;1.75;;;1.38;;
75050;SDS011;63628;47.656;11.310;2022-10-16T11:23:02;1.20;;;1.10;;
75050;SDS011;63628;47.656;11.310;2022-10-16T11:25:37;2.08;;;1.30;;
75050;SDS011;63628;47.656;11.310;2022-10-16T11:28:13;1.15;;;0.95;;
75050;SDS011;63628;47.656;11.310;2022-10-16T11:33:28;1.33;;;1.00;;
75050;SDS011;63628;47.656;11.310;2022-10-16T11:39:00;1.83;;;0.55;;
75050;SDS011;63628;47.656;11.310;2022-10-16T11:47:29;0.85;;;0.70;;
75050;SDS011;63628;47.656;11.310;2022-10-16T11:50:35;0.28;;;0.22;;
75050;SDS011;63628;47.656;11.310;2022-10-16T11:56:06;0.50;;;0.50;;
75050;SDS011;63628;47.656;11.310;2022-10-16T12:06:34;0.65;;;0.52;;
75050;SDS011;63628;47.656;11.310;2022-10-16T12:09:09;0.88;;;0.70;;
75050;SDS011;63628;47.656;11.310;2022-10-16T12:11:42;1.05;;;0.57;;
75050;SDS011;63628;47.656;11.310;2022-10-16T12:16:39;0.70;;;0.70;;
75050;SDS011;63628;47.656;11.310;2022-10-16T12:19:26;1.55;;;0.70;;
75050;SDS011;63628;47.656;11.310;2022-10-16T12:21:55;0.47;;;0.47;;
75050;SDS011;63628;47.656;11.310;2022-10-16T12:27:23;1.35;;;0.88;;
75050;SDS011;63628;47.656;11.310;2022-10-16T12:30:04;1.58;;;0.60;;
75050;SDS011;63628;47.656;11.310;2022-10-16T12:32:32;1.10;;;0.70;;
75050;SDS011;63628;47.656;11.310;2022-10-16T12:35:18;1.23;;;0.68;;
75050;SDS011;63628;47.656;11.310;2022-10-16T12:37:47;0.70;;;0.60;;
75050;SDS011;63628;47.656;11.310;2022-10-16T12:40:22;0.73;;;0.68;;
75050;SDS011;63628;47.656;11.310;2022-10-16T12:42:52;0.70;;;0.50;;
75050;SDS011;63628;47.656;11.310;2022-10-16T12:47:54;1.45;;;0.68;;
75050;SDS011;63628;47.656;11.310;2022-10-16T12:50:37;0.55;;;0.55;;
75050;SDS011;63628;47.656;11.310;2022-10-16T13:01:24;1.08;;;0.90;;
75050;SDS011;63628;47.656;11.310;2022-10-16T13:06:34;0.73;;;0.70;;
75050;SDS011;63628;47.656;11.310;2022-10-16T13:28:42;0.80;;;0.80;;
75050;SDS011;63628;47.656;11.310;2022-10-16T13:31:12;0.60;;;0.60;;
75050;SDS011;63628;47.656;11.310;2022-10-16T13:33:47;2.90;;;0.60;;
75050;SDS011;63628;47.656;11.310;2022-10-16T13:36:23;0.65;;;0.60;;
75050;SDS011;63628;47.656;11.310;2022-10-16T13:42:06;0.70;;;0.43;;
75050;SDS011;63628;47.656;11.310;2022-10-16T13:44:48;0.68;;;0.55;;
75050;SDS011;63628;47.656;11.310;2022-10-16T13:47:17;2.25;;;1.17;;
75050;SDS011;63628;47.656;11.310;2022-10-16T13:50:00;0.82;;;0.70;;
75050;SDS011;63628;47.656;11.310;2022-10-16T13:52:27;1.13;;;0.50;;
75050;SDS011;63628;47.656;11.310;2022-10-16T13:54:54;0.60;;;0.40;;
75050;SDS011;63628;47.656;11.310;2022-10-16T13:57:27;4.10;;;0.77;;
75050;SDS011;63628;47.656;11.310;2022-10-16T13:59:54;2.88;;;0.70;;
75050;SDS011;63628;47.656;11.310;2022-10-16T14:04:51;3.97;;;0.80;;
75050;SDS011;63628;47.656;11.310;2022-10-16T14:07:21;3.28;;;0.77;;
75050;SDS011;63628;47.656;11.310;2022-10-16T14:09:52;5.65;;;0.82;;
75050;SDS011;63628;47.656;11.310;2022-10-16T14:12:19;2.53;;;0.80;;
75050;SDS011;63628;47.656;11.310;2022-10-16T14:14:53;4.15;;;1.10;;
75050;SDS011;63628;47.656;11.310;2022-10-16T14:17:25;2.27;;;0.50;;
75050;SDS011;63628;47.656;11.310;2022-10-16T14:19:54;0.98;;;0.88;;
75050;SDS011;63628;47.656;11.310;2022-10-16T14:25:25;6.60;;;0.85;;
75050;SDS011;63628;47.656;11.310;2022-10-16T14:27:58;0.75;;;0.60;;
75050;SDS011;63628;47.656;11.310;2022-10-16T14:30:54;1.13;;;0.80;;
75050;SDS011;63628;47.656;11.310;2022-10-16T14:33:24;0.82;;;0.70;;
75050;SDS011;63628;47.656;11.310;2022-10-16T14:38:26;0.50;;;0.50;;
75050;SDS011;63628;47.656;11.310;2022-10-16T14:40:53;0.60;;;0.60;;
75050;SDS011;63628;47.656;11.310;2022-10-16T14:43:34;1.60;;;0.73;;
75050;SDS011;63628;47.656;11.310;2022-10-16T14:46:04;0.70;;;0.70;;
75050;SDS011;63628;47.656;11.310;2022-10-16T14:48:35;0.60;;;0.60;;
75050;SDS011;63628;47.656;11.310;2022-10-16T14:51:01;1.55;;;0.70;;
75050;SDS011;63628;47.656;11.310;2022-10-16T14:53:28;0.50;;;0.43;;
75050;SDS011;63628;47.656;11.310;2022-10-16T14:55:54;0.70;;;0.68;;
75050;SDS011;63628;47.656;11.310;2022-10-16T14:58:21;0.50;;;0.50;;
75050;SDS011;63628;47.656;11.310;2022-10-16T15:00:49;0.70;;;0.70;;
75050;SDS011;63628;47.656;11.310;2022-10-16T15:03:16;1.42;;;0.70;;
75050;SDS011;63628;47.656;11.310;2022-10-16T15:05:43;3.72;;;0.70;;
75050;SDS011;63628;47.656;11.310;2022-10-16T15:08:09;3.80;;;0.60;;
75050;SDS011;63628;47.656;11.310;2022-10-16T15:10:40;0.85;;;0.80;;
75050;SDS011;63628;47.656;11.310;2022-10-16T15:13:11;0.70;;;0.70;;
75050;SDS011;63628;47.656;11.310;2022-10-16T15:15:45;0.93;;;0.70;;
75050;SDS011;63628;47.656;11.310;2022-10-16T15:18:13;0.63;;;0.63;;
75050;SDS011;63628;47.656;11.310;2022-10-16T15:20:41;1.80;;;0.67;;
75050;SDS011;63628;47.656;11.310;2022-10-16T15:23:15;1.17;;;0.60;;
75050;SDS011;63628;47.656;11.310;2022-10-16T15:25:45;0.70;;;0.68;;
75050;SDS011;63628;47.656;11.310;2022-10-16T15:30:40;2.40;;;0.68;;
75050;SDS011;63628;47.656;11.310;2022-10-16T15:33:11;2.88;;;0.70;;
75050;SDS011;63628;47.656;11.310;2022-10-16T15:35:39;3.00;;;0.88;;
75050;SDS011;63628;47.656;11.310;2022-10-16T15:38:06;3.00;;;0.80;;
75050;SDS011;63628;47.656;11.310;2022-10-16T15:40:34;2.05;;;0.80;;
75050;SDS011;63628;47.656;11.310;2022-10-16T15:43:01;1.77;;;0.77;;
75050;SDS011;63628;47.656;11.310;2022-10-16T15:45:27;1.05;;;0.90;;
75050;SDS011;63628;47.656;11.310;2022-10-16T15:47:54;3.25;;;0.57;;
75050;SDS011;63628;47.656;11.310;2022-10-16T15:50:20;1.30;;;0.50;;
75050;SDS011;63628;47.656;11.310;2022-10-16T15:52:47;1.80;;;0.65;;
75050;SDS011;63628;47.656;11.310;2022-10-16T15:55:14;1.50;;;0.90;;
75050;SDS011;63628;47.656;11.310;2022-10-16T15:57:40;2.47;;;0.77;;
75050;SDS011;63628;47.656;11.310;2022-10-16T16:00:10;2.08;;;0.60;;
75050;SDS011;63628;47.656;11.310;2022-10-16T16:02:48;4.78;;;0.88;;
75050;SDS011;63628;47.656;11.310;2022-10-16T16:05:17;2.00;;;0.60;;
75050;SDS011;63628;47.656;11.310;2022-10-16T16:07:44;0.73;;;0.50;;
75050;SDS011;63628;47.656;11.310;2022-10-16T16:10:11;2.67;;;0.80;;
75050;SDS011;63628;47.656;11.310;2022-10-16T16:12:38;1.00;;;0.80;;
75050;SDS011;63628;47.656;11.310;2022-10-16T16:15:05;0.98;;;0.85;;
75050;SDS011;63628;47.656;11.310;2022-10-16T16:17:34;1.90;;;0.80;;
75050;SDS011;63628;47.656;11.310;2022-10-16T16:20:01;2.13;;;0.80;;
75050;SDS011;63628;47.656;11.310;2022-10-16T16:22:29;1.73;;;0.70;;
75050;SDS011;63628;47.656;11.310;2022-10-16T16:24:56;0.90;;;0.60;;
75050;SDS011;63628;47.656;11.310;2022-10-16T16:27:23;0.70;;;0.70;;
75050;SDS011;63628;47.656;11.310;2022-10-16T16:29:51;0.70;;;0.70;;
75050;SDS011;63628;47.656;11.310;2022-10-16T16:32:19;0.80;;;0.60;;
75050;SDS011;63628;47.656;11.310;2022-10-16T16:34:46;0.82;;;0.63;;
75050;SDS011;63628;47.656;11.310;2022-10-16T16:37:12;0.60;;;0.60;;
75050;SDS011;63628;47.656;11.310;2022-10-16T16:39:39;1.05;;;0.77;;
75050;SDS011;63628;47.656;11.310;2022-10-16T16:42:05;0.68;;;0.52;;
75050;SDS011;63628;47.656;11.310;2022-10-16T16:44:33;2.28;;;1.23;;
75050;SDS011;63628;47.656;11.310;2022-10-16T16:47:02;0.85;;;0.63;;
75050;SDS011;63628;47.656;11.310;2022-10-16T16:49:30;1.17;;;0.60;;
75050;SDS011;63628;47.656;11.310;2022-10-16T16:51:56;0.70;;;0.68;;
75050;SDS011;63628;47.656;11.310;2022-10-16T16:54:23;0.70;;;0.60;;
75050;SDS011;63628;47.656;11.310;2022-10-16T16:56:50;1.30;;;0.80;;
75050;SDS011;63628;47.656;11.310;2022-10-16T16:59:21;0.68;;;0.68;;
75050;SDS011;63628;47.656;11.310;2022-10-16T17:01:48;0.63;;;0.63;;
75050;SDS011;63628;47.656;11.310;2022-10-16T17:04:21;7.75;;;1.23;;
75050;SDS011;63628;47.656;11.310;2022-10-16T17:06:48;1.35;;;0.98;;
75050;SDS011;63628;47.656;11.310;2022-10-16T17:09:14;1.77;;;0.77;;